Kodiak — WUV9256 — position and weather

sailwx.info

Track history (hours):
 
Tides and Currents Weather Stations Pressure Air Temp Water Temp Dewpoint Dewpoint Depression Visibility Wind Speed Wind Dir Waves Ship Positions

Kodiak

Owner: KLEMZAK, JOHN, KODIAK, AK. More information available from US FCC via Universal Licensing System and Coast Guard Vessel Documentation Center.

Last reported at 2016-Mar-25 23:32 UTC. Time now 2016-Apr-29 01:58 UTC.
Position N 47°39' W 122°22'.
Warning: this ship's position is 34 days out of date.

Length 37 m; draft 3.5 m.

Type: Fishing. MMSI: 303546000.

Date/timePositionNaut miles runAvg speedWind from/ knotsBaromVisibWave heightAir tempDewpointWater temp
2016-Mar-25 23:32N 47°39' W 122°22'1 1.3
2016-Mar-25 22:32N 47°40' W 122°24'0 0.3
2016-Mar-25 21:28N 47°40' W 122°24'0 0.1
2016-Mar-25 20:32N 47°40' W 122°24'7 6.8
2016-Mar-25 19:33N 47°47' W 122°27'8 8.3
2016-Mar-25 18:33N 47°55' W 122°30'9 6.1
2016-Mar-25 17:08N 48°01' W 122°38'10 5.8
2016-Mar-25 15:20N 48°10' W 122°47'6 7.6
2016-Mar-25 14:33N 48°16' W 122°48'8 8.3
2016-Mar-25 13:32N 48°24' W 122°45'7 7.6
2016-Mar-25 12:33N 48°32' W 122°45'7 7.1
2016-Mar-25 11:33N 48°39' W 122°44'7 7.4
2016-Mar-25 10:33N 48°45' W 122°49'9 9.0
2016-Mar-25 09:32N 48°50' W 123°01'9 9.0
2016-Mar-25 08:33N 48°56' W 123°11'10 9.6
2016-Mar-25 07:33N 49°02' W 123°22'9 9.1
2016-Mar-25 06:33N 49°08' W 123°33'9 9.0
2016-Mar-25 05:33N 49°13' W 123°44'9 9.3
2016-Mar-25 04:33N 49°17' W 123°56'9 9.3
2016-Mar-25 03:33N 49°22' W 124°09'9 8.8
2016-Mar-25 02:33N 49°27' W 124°20'9 8.6
2016-Mar-25 01:33N 49°33' W 124°30'9 8.8
2016-Mar-25 00:33N 49°39' W 124°40'9 8.7
2016-Mar-24 23:33N 49°45' W 124°49'8 8.4
2016-Mar-24 22:33N 49°51' W 124°58'8 8.5
2016-Mar-24 21:33N 49°57' W 125°08'1010.2
2016-Mar-24 20:33N 50°05' W 125°16'6 5.8
2016-Mar-24 19:28N 50°11' W 125°20'0 0.0
2016-Mar-24 18:31N 50°11' W 125°20'0 0.0
2016-Mar-24 17:31N 50°11' W 125°20'1 1.2
2016-Mar-24 16:34N 50°10' W 125°22'1 1.2
2016-Mar-24 15:33N 50°11' W 125°22'8 7.5
2016-Mar-24 14:29N 50°19' W 125°25'82 8.3
2016-Mar-24 04:33N 50°47' W 127°28'9 8.8
2016-Mar-24 03:33N 50°50' W 127°41'  
Track history (hours):
 
Tides and Currents Weather Stations Pressure Air Temp Water Temp Dewpoint Dewpoint Depression Visibility Wind Speed Wind Dir Waves Ship Positions

Kodiak

Owner: KLEMZAK, JOHN, KODIAK, AK. More information available from US FCC via Universal Licensing System and Coast Guard Vessel Documentation Center.

Last reported at 2016-Mar-25 23:32 UTC. Time now 2016-Apr-29 01:58 UTC.
Position N 47°39' W 122°22'.
Warning: this ship's position is 34 days out of date.

Length 37 m; draft 3.5 m.

Type: Fishing. MMSI: 303546000.

Date/timePositionNaut miles runAvg speedWind from/ knotsBaromVisibWave heightAir tempDewpointWater temp
2016-Mar-25 23:32N 47°39' W 122°22'1 1.3
2016-Mar-25 22:32N 47°40' W 122°24'0 0.3
2016-Mar-25 21:28N 47°40' W 122°24'0 0.1
2016-Mar-25 20:32N 47°40' W 122°24'7 6.8
2016-Mar-25 19:33N 47°47' W 122°27'8 8.3
2016-Mar-25 18:33N 47°55' W 122°30'9 6.1
2016-Mar-25 17:08N 48°01' W 122°38'10 5.8
2016-Mar-25 15:20N 48°10' W 122°47'6 7.6
2016-Mar-25 14:33N 48°16' W 122°48'8 8.3
2016-Mar-25 13:32N 48°24' W 122°45'7 7.6
2016-Mar-25 12:33N 48°32' W 122°45'7 7.1
2016-Mar-25 11:33N 48°39' W 122°44'7 7.4
2016-Mar-25 10:33N 48°45' W 122°49'9 9.0
2016-Mar-25 09:32N 48°50' W 123°01'9 9.0
2016-Mar-25 08:33N 48°56' W 123°11'10 9.6
2016-Mar-25 07:33N 49°02' W 123°22'9 9.1
2016-Mar-25 06:33N 49°08' W 123°33'9 9.0
2016-Mar-25 05:33N 49°13' W 123°44'9 9.3
2016-Mar-25 04:33N 49°17' W 123°56'9 9.3
2016-Mar-25 03:33N 49°22' W 124°09'9 8.8
2016-Mar-25 02:33N 49°27' W 124°20'9 8.6
2016-Mar-25 01:33N 49°33' W 124°30'9 8.8
2016-Mar-25 00:33N 49°39' W 124°40'9 8.7
2016-Mar-24 23:33N 49°45' W 124°49'8 8.4
2016-Mar-24 22:33N 49°51' W 124°58'8 8.5
2016-Mar-24 21:33N 49°57' W 125°08'1010.2
2016-Mar-24 20:33N 50°05' W 125°16'6 5.8
2016-Mar-24 19:28N 50°11' W 125°20'0 0.0
2016-Mar-24 18:31N 50°11' W 125°20'0 0.0
2016-Mar-24 17:31N 50°11' W 125°20'1 1.2
2016-Mar-24 16:34N 50°10' W 125°22'1 1.2
2016-Mar-24 15:33N 50°11' W 125°22'8 7.5
2016-Mar-24 14:29N 50°19' W 125°25'82 8.3
2016-Mar-24 04:33N 50°47' W 127°28'9 8.8
2016-Mar-24 03:33N 50°50' W 127°41'  

Dump ship's entire track history